Time;durP1;ratioP1;P1;durP2;ratioP2;P2;SDS_P1;SDS_P2;PMS_P1;PMS_P2;Temp;Humidity;BMP_temperature;BMP_pressure;BME280_temperature;BME280_humidity;BME280_pressure;Samples;Min_cycle;Max_cycle;Signal;HPM_P1;HPM_P2
2022/08/24 00:02:08;;;;;;;10.52;5.45;;;22.70;95.00;;;;;;5032262;28;20028;-71
2022/08/24 00:04:34;;;;;;;8.97;5.50;;;22.60;95.30;;;;;;5044794;28;20037;-72
2022/08/24 00:07:01;;;;;;;8.57;5.27;;;22.60;95.30;;;;;;5052071;28;20021;-71
2022/08/24 00:09:27;;;;;;;9.25;5.38;;;22.60;95.20;;;;;;5050453;28;20468;-71
2022/08/24 00:11:53;;;;;;;8.43;5.75;;;22.60;95.40;;;;;;5043420;28;20104;-71
2022/08/24 00:14:18;;;;;;;8.97;5.27;;;22.50;95.40;;;;;;5050409;28;20132;-72
2022/08/24 00:16:44;;;;;;;10.80;5.37;;;22.50;94.90;;;;;;5051553;28;20036;-72
2022/08/24 00:19:10;;;;;;;7.10;4.70;;;22.50;94.90;;;;;;5050113;28;20095;-72
2022/08/24 00:21:36;;;;;;;8.20;5.17;;;22.50;94.30;;;;;;5050549;28;20040;-71
2022/08/24 00:24:02;;;;;;;11.35;4.90;;;22.50;94.30;;;;;;5051781;28;20265;-70
2022/08/24 00:26:28;;;;;;;7.85;4.82;;;22.60;93.60;;;;;;5034190;28;20040;-71
2022/08/24 00:28:53;;;;;;;12.33;5.17;;;22.60;93.50;;;;;;5030436;28;20029;-73
2022/08/24 00:31:19;;;;;;;7.23;4.33;;;22.60;93.40;;;;;;5030709;28;20389;-70
2022/08/24 00:33:45;;;;;;;6.00;4.20;;;22.70;93.00;;;;;;5035330;28;20104;-71
2022/08/24 00:36:10;;;;;;;8.53;5.23;;;22.70;93.00;;;;;;5050203;28;20127;-71
2022/08/24 00:38:36;;;;;;;7.17;4.63;;;22.70;93.30;;;;;;5051611;28;20098;-71
2022/08/24 00:41:03;;;;;;;7.32;4.72;;;22.70;93.00;;;;;;5039525;28;20033;-72
2022/08/24 00:43:29;;;;;;;8.02;4.78;;;22.60;93.10;;;;;;5031533;28;20040;-72
2022/08/24 00:46:22;;;;;;;10.23;6.03;;;22.60;93.00;;;;;;5031923;28;20369;-72
2022/08/24 00:48:54;;;;;;;8.23;4.88;;;22.50;93.00;;;;;;5033338;28;20037;-71
2022/08/24 00:51:30;;;;;;;8.00;5.03;;;22.50;93.10;;;;;;5051254;28;20461;-71
2022/08/24 00:54:03;;;;;;;8.63;5.18;;;22.50;93.20;;;;;;5051262;28;20037;-72
2022/08/24 00:56:36;;;;;;;9.88;5.45;;;22.50;93.00;;;;;;5038897;28;20112;-72
2022/08/24 00:59:12;;;;;;;8.70;5.20;;;22.40;93.00;;;;;;5031133;28;20026;-72
2022/08/24 01:01:38;;;;;;;8.77;5.13;;;22.40;93.30;;;;;;5030046;28;20025;-71
2022/08/24 01:04:06;;;;;;;11.00;5.13;;;22.40;93.90;;;;;;5033291;28;20115;-72
2022/08/24 01:06:32;;;;;;;9.77;5.03;;;22.20;93.50;;;;;;5051058;28;20443;-73
2022/08/24 01:08:58;;;;;;;7.00;5.00;;;22.20;93.70;;;;;;5049559;28;20090;-72
2022/08/24 01:11:27;;;;;;;8.75;5.25;;;22.20;94.00;;;;;;5041806;28;20417;-73
2022/08/24 01:13:54;;;;;;;10.15;5.50;;;22.10;94.20;;;;;;5030959;28;20030;-72
2022/08/24 01:19:25;;;;;;;8.25;5.10;;;22.00;93.70;;;;;;5031250;28;20092;-70
2022/08/24 01:22:20;;;;;;;8.70;5.13;;;22.00;93.90;;;;;;5049145;28;20119;-72
2022/08/24 01:24:46;;;;;;;8.50;4.90;;;22.00;94.00;;;;;;5050804;28;20465;-71
2022/08/24 01:27:14;;;;;;;8.20;5.30;;;21.90;94.10;;;;;;5036355;28;20025;-71
2022/08/24 01:29:41;;;;;;;9.05;5.30;;;21.90;94.20;;;;;;5030919;28;20049;-71
2022/08/24 01:32:07;;;;;;;11.23;5.30;;;21.80;94.10;;;;;;5029286;28;20033;-70
2022/08/24 01:34:33;;;;;;;10.68;5.07;;;21.80;94.10;;;;;;5032679;28;20037;-69
2022/08/24 01:37:02;;;;;;;7.70;5.43;;;21.80;94.00;;;;;;5049464;28;20063;-70
2022/08/24 01:39:33;;;;;;;9.18;5.38;;;21.80;94.10;;;;;;5050519;28;20086;-71
2022/08/24 01:42:00;;;;;;;9.52;5.60;;;21.70;94.00;;;;;;5038677;28;20107;-71
2022/08/24 01:44:28;;;;;;;7.40;4.75;;;21.80;94.50;;;;;;5028947;28;20033;-70
2022/08/24 01:46:55;;;;;;;11.15;5.72;;;21.70;94.10;;;;;;5030480;28;20101;-70
2022/08/24 01:49:22;;;;;;;;;;;21.70;94.30;;;;;;5031094;28;20401;-70
2022/08/24 01:51:48;;;;;;;9.88;5.53;;;21.60;94.10;;;;;;5048819;28;19908;-71
2022/08/24 01:54:14;;;;;;;9.50;5.00;;;21.60;94.20;;;;;;5050088;28;20040;-70
2022/08/24 01:56:40;;;;;;;9.68;5.78;;;21.60;94.50;;;;;;5045123;28;20377;-71
2022/08/24 01:59:06;;;;;;;8.13;5.22;;;21.50;94.50;;;;;;5034746;28;20102;-72
2022/08/24 02:01:37;;;;;;;8.52;5.32;;;21.40;94.50;;;;;;5048729;28;20025;-70
2022/08/24 02:04:05;;;;;;;8.40;4.38;;;21.40;94.20;;;;;;5049951;28;20024;-72
2022/08/24 02:06:31;;;;;;;7.35;5.05;;;21.40;94.40;;;;;;5034161;28;20036;-71
2022/08/24 02:08:57;;;;;;;10.88;5.60;;;21.30;94.20;;;;;;5028643;28;20029;-72
2022/08/24 02:11:23;;;;;;;8.43;5.27;;;21.40;94.70;;;;;;5030529;28;20075;-70
2022/08/24 02:13:48;;;;;;;10.10;5.57;;;21.30;94.90;;;;;;5049819;28;20090;-70
2022/08/24 02:16:14;;;;;;;9.83;5.37;;;21.30;94.90;;;;;;5049815;28;20025;-71
2022/08/24 02:18:40;;;;;;;9.03;5.37;;;21.20;94.80;;;;;;5049901;28;20171;-73
2022/08/24 02:21:07;;;;;;;11.77;5.27;;;21.20;94.80;;;;;;5041347;28;20389;-71
2022/08/24 02:23:34;;;;;;;7.72;5.05;;;21.10;95.00;;;;;;5030059;28;20535;-72
2022/08/24 02:26:01;;;;;;;9.57;4.82;;;21.10;94.90;;;;;;5030584;28;20174;-75
2022/08/24 02:28:27;;;;;;;8.70;4.47;;;21.10;94.90;;;;;;5044427;28;20029;-72
2022/08/24 02:30:54;;;;;;;7.93;5.22;;;21.00;94.90;;;;;;5050462;28;20033;-71
2022/08/24 02:33:19;;;;;;;8.32;4.90;;;21.00;94.50;;;;;;5049789;28;20028;-71
2022/08/24 02:35:45;;;;;;;10.30;4.87;;;21.10;94.70;;;;;;5050135;28;20041;-72
2022/08/24 02:38:11;;;;;;;9.33;5.20;;;21.00;94.50;;;;;;5050588;28;20442;-71
2022/08/24 02:40:36;;;;;;;13.27;5.10;;;21.00;94.80;;;;;;5054261;28;20036;-71
2022/08/24 02:43:02;;;;;;;7.87;5.00;;;20.90;94.80;;;;;;5043294;28;20041;-71
2022/08/24 02:45:28;;;;;;;11.27;4.83;;;20.90;95.00;;;;;;5033739;28;20389;-72
2022/08/24 02:47:53;;;;;;;7.50;4.70;;;20.90;94.90;;;;;;5034237;28;20354;-71
2022/08/24 02:50:19;;;;;;;8.40;4.40;;;20.80;95.00;;;;;;5033710;28;20373;-71
2022/08/24 02:52:45;;;;;;;8.67;5.00;;;20.80;94.50;;;;;;5052073;28;20049;-72
2022/08/24 02:55:15;;;;;;;10.77;4.75;;;20.80;93.90;;;;;;5053493;28;20485;-70
2022/08/24 02:57:41;;;;;;;10.07;4.05;;;20.90;94.20;;;;;;5047808;28;20038;-71
2022/08/24 03:00:11;;;;;;;8.97;4.40;;;20.90;94.00;;;;;;5033544;28;20500;-71
2022/08/24 03:02:37;;;;;;;8.80;4.32;;;21.00;94.40;;;;;;5033687;28;20113;-71
2022/08/24 03:05:04;;;;;;;6.70;4.32;;;20.90;94.20;;;;;;5032160;28;20076;-70
2022/08/24 03:07:29;;;;;;;7.15;4.25;;;20.80;94.40;;;;;;5047650;28;20037;-72
2022/08/24 03:09:55;;;;;;;8.93;4.10;;;20.80;94.50;;;;;;5053332;28;20017;-71
2022/08/24 03:12:21;;;;;;;6.17;3.93;;;20.70;94.60;;;;;;5052525;28;20037;-73
2022/08/24 03:14:46;;;;;;;10.10;4.77;;;20.70;94.40;;;;;;5033236;28;20030;-72
2022/08/24 03:17:12;;;;;;;9.37;4.27;;;20.70;94.30;;;;;;5033440;28;20022;-71
2022/08/24 03:19:38;;;;;;;5.72;3.85;;;20.70;94.20;;;;;;5033121;28;20087;-71
2022/08/24 03:22:04;;;;;;;11.00;4.50;;;20.70;94.30;;;;;;5041722;28;20044;-72
2022/08/24 03:24:30;;;;;;;8.47;4.50;;;20.70;94.50;;;;;;5052818;28;20028;-71
2022/08/24 03:26:56;;;;;;;8.53;4.23;;;20.70;93.90;;;;;;5052916;28;20025;-72
2022/08/24 03:29:21;;;;;;;7.73;3.90;;;20.70;94.20;;;;;;5037122;28;20033;-72
2022/08/24 03:31:48;;;;;;;6.37;3.60;;;20.70;93.70;;;;;;5031656;28;20113;-71
2022/08/24 03:34:14;;;;;;;8.57;4.47;;;20.70;93.50;;;;;;5032735;28;20022;-71
2022/08/24 03:36:45;;;;;;;7.47;3.95;;;20.70;93.50;;;;;;5036105;28;20445;-72
2022/08/24 03:39:11;;;;;;;8.15;4.18;;;20.70;93.40;;;;;;5051351;28;20036;-71
2022/08/24 03:41:36;;;;;;;7.70;3.67;;;20.70;93.20;;;;;;5052445;28;20416;-70
2022/08/24 03:44:02;;;;;;;7.07;3.77;;;20.70;93.20;;;;;;5040064;28;20294;-73
2022/08/24 03:46:31;;;;;;;7.43;3.93;;;20.80;93.20;;;;;;5032727;28;20108;-72
2022/08/24 03:48:58;;;;;;;10.98;3.40;;;20.70;93.10;;;;;;5032649;28;20022;-72
2022/08/24 03:51:27;;;;;;;5.60;3.72;;;20.80;93.20;;;;;;5031380;28;20042;-73
2022/08/24 03:53:53;;;;;;;6.57;4.03;;;20.70;93.00;;;;;;5052105;28;20176;-72
2022/08/24 03:56:19;;;;;;;6.43;3.72;;;20.80;92.60;;;;;;5052428;28;20037;-71
2022/08/24 03:58:45;;;;;;;6.70;3.53;;;20.80;93.00;;;;;;5045519;28;20554;-73
2022/08/24 04:01:12;;;;;;;12.73;3.97;;;20.80;93.00;;;;;;5032417;28;20065;-72
2022/08/24 04:03:40;;;;;;;6.40;3.83;;;20.70;93.10;;;;;;5032260;28;20501;-73
2022/08/24 04:06:07;;;;;;;8.57;3.92;;;20.70;93.00;;;;;;5032558;28;20127;-72
2022/08/24 04:08:33;;;;;;;;;;;20.70;93.10;;;;;;5047599;28;20032;-71
2022/08/24 04:10:59;;;;;;;8.57;4.30;;;20.70;93.10;;;;;;5050411;28;19904;-72
2022/08/24 04:13:25;;;;;;;6.07;3.60;;;20.60;93.40;;;;;;5034044;28;20377;-71
2022/08/24 04:15:51;;;;;;;6.80;3.60;;;20.60;93.40;;;;;;5050592;28;20033;-71
2022/08/24 04:18:18;;;;;;;8.98;4.07;;;20.70;93.00;;;;;;5051792;28;20040;-71
2022/08/24 04:20:44;;;;;;;;;;;20.70;93.10;;;;;;5042629;28;20045;-71
2022/08/24 04:23:11;;;;;;;6.25;4.10;;;20.70;93.50;;;;;;5032311;28;19913;-72
2022/08/24 04:25:46;;;;;;;8.50;3.90;;;20.70;93.20;;;;;;5032110;28;20100;-71
2022/08/24 04:28:17;;;;;;;7.47;3.78;;;20.70;93.50;;;;;;5031850;28;20497;-73
2022/08/24 04:30:44;;;;;;;6.00;3.65;;;20.80;93.40;;;;;;5050155;28;20100;-71
2022/08/24 04:33:11;;;;;;;9.73;3.70;;;20.80;93.70;;;;;;5052064;28;20033;-72
2022/08/24 04:35:39;;;;;;;6.93;3.78;;;20.80;93.50;;;;;;5051674;28;20036;-72
2022/08/24 04:38:05;;;;;;;6.20;3.72;;;20.80;93.40;;;;;;5043851;28;20556;-72
2022/08/24 04:40:31;;;;;;;6.15;3.50;;;20.80;93.10;;;;;;5030206;28;20535;-72
2022/08/24 04:42:57;;;;;;;5.50;3.47;;;20.90;93.20;;;;;;5029942;28;20056;-73
2022/08/24 04:45:24;;;;;;;8.27;3.67;;;21.00;93.40;;;;;;5045435;28;20029;-72
2022/08/24 04:47:50;;;;;;;6.15;3.67;;;21.00;93.40;;;;;;5051804;28;20047;-71
2022/08/24 04:50:15;;;;;;;5.97;3.47;;;21.10;92.90;;;;;;5051338;28;20100;-72
2022/08/24 04:52:41;;;;;;;8.47;3.57;;;21.10;93.10;;;;;;5049409;28;20044;-72
2022/08/24 04:55:07;;;;;;;7.07;3.90;;;21.10;92.90;;;;;;5031220;28;20080;-72
2022/08/24 04:57:33;;;;;;;5.17;3.40;;;21.30;93.10;;;;;;5029983;28;20029;-72
2022/08/24 04:59:59;;;;;;;6.18;4.05;;;21.20;92.80;;;;;;5031895;28;20291;-71
2022/08/24 05:02:26;;;;;;;6.10;3.53;;;21.30;92.50;;;;;;5031007;28;20527;-72
2022/08/24 05:04:51;;;;;;;8.02;3.80;;;21.30;93.00;;;;;;5031230;28;20083;-71
2022/08/24 05:07:18;;;;;;;8.50;3.57;;;21.40;92.50;;;;;;5031416;28;20421;-70
2022/08/24 05:09:44;;;;;;;6.78;3.33;;;21.40;92.70;;;;;;5047820;28;20024;-71
2022/08/24 05:12:10;;;;;;;8.17;4.27;;;21.40;92.90;;;;;;5051287;28;20040;-71
2022/08/24 05:14:36;;;;;;;6.20;3.60;;;21.40;92.30;;;;;;5050834;28;20550;-71
2022/08/24 05:17:02;;;;;;;8.20;3.77;;;21.50;92.70;;;;;;5049322;28;20028;-73
2022/08/24 05:19:27;;;;;;;6.30;3.70;;;21.60;92.80;;;;;;5051234;28;20027;-70
2022/08/24 05:21:53;;;;;;;7.83;3.57;;;21.60;92.80;;;;;;5051064;28;20388;-71
2022/08/24 05:24:19;;;;;;;7.10;3.40;;;21.70;92.30;;;;;;5037904;28;20045;-70
2022/08/24 05:26:45;;;;;;;7.70;3.20;;;21.70;92.50;;;;;;5031131;28;20104;-70
2022/08/24 05:29:11;;;;;;;5.30;3.25;;;21.80;92.20;;;;;;5029409;28;20029;-71
2022/08/24 05:31:36;;;;;;;7.88;3.40;;;21.80;92.50;;;;;;5048600;28;20040;-74
2022/08/24 05:34:03;;;;;;;6.90;3.67;;;21.90;92.10;;;;;;5050657;28;20102;-71
2022/08/24 05:36:32;;;;;;;10.52;3.67;;;21.90;91.60;;;;;;5049217;28;20546;-71
2022/08/24 05:39:01;;;;;;;7.07;3.85;;;21.90;91.80;;;;;;5042241;28;20124;-71
2022/08/24 05:41:27;;;;;;;6.75;4.18;;;22.00;91.80;;;;;;5028895;28;20053;-71
2022/08/24 05:43:53;;;;;;;6.28;3.50;;;22.00;91.40;;;;;;5030522;28;20028;-70
2022/08/24 05:46:19;;;;;;;6.03;3.70;;;22.10;91.60;;;;;;5044019;28;20045;-71
2022/08/24 05:48:45;;;;;;;6.72;3.65;;;22.20;91.40;;;;;;5050395;28;20033;-72
2022/08/24 05:51:12;;;;;;;8.83;4.27;;;22.30;91.60;;;;;;5050401;28;20041;-72
2022/08/24 05:53:39;;;;;;;7.45;3.90;;;22.40;91.80;;;;;;5048532;28;20345;-71
2022/08/24 05:56:07;;;;;;;7.00;3.53;;;22.40;91.40;;;;;;5030596;28;20447;-71
2022/08/24 05:58:33;;;;;;;7.97;3.78;;;22.50;91.20;;;;;;5029121;28;20405;-71
2022/08/24 06:01:09;;;;;;;8.70;3.80;;;22.50;90.70;;;;;;5028960;28;20022;-72
2022/08/24 06:03:35;;;;;;;7.10;4.07;;;22.50;90.90;;;;;;5030282;28;20013;-70
2022/08/24 06:06:02;;;;;;;5.97;3.80;;;22.60;90.70;;;;;;5028900;28;20528;-71
2022/08/24 06:08:29;;;;;;;;;;;22.60;90.30;;;;;;5029285;28;20034;-70
2022/08/24 06:10:56;;;;;;;8.88;3.97;;;22.60;90.30;;;;;;5047480;28;19915;-70
2022/08/24 06:13:22;;;;;;;5.63;3.47;;;22.60;90.00;;;;;;5049500;28;20116;-71
2022/08/24 06:15:48;;;;;;;7.80;3.90;;;22.70;90.00;;;;;;5046264;28;20021;-71
2022/08/24 06:18:13;;;;;;;9.17;4.23;;;22.80;90.10;;;;;;5047317;28;20392;-71
2022/08/24 06:20:41;;;;;;;7.47;3.90;;;22.90;89.70;;;;;;5048764;28;20796;-70
2022/08/24 06:23:07;;;;;;;8.80;3.70;;;22.90;89.60;;;;;;5050386;28;20409;-72
2022/08/24 06:28:21;;;;;;;6.90;3.92;;;22.90;89.10;;;;;;5049967;28;20067;-71
2022/08/24 06:30:46;;;;;;;7.10;3.93;;;23.00;89.90;;;;;;5046541;28;20025;-70
2022/08/24 06:33:12;;;;;;;6.03;3.83;;;23.20;89.70;;;;;;5030168;28;20030;-72
2022/08/24 06:35:37;;;;;;;9.13;3.80;;;23.20;89.40;;;;;;5030010;28;20037;-73
2022/08/24 06:38:03;;;;;;;8.73;4.13;;;23.40;90.00;;;;;;5030395;28;20069;-73
2022/08/24 06:40:29;;;;;;;8.07;4.20;;;23.50;90.00;;;;;;5040877;28;20526;-71
2022/08/24 06:42:54;;;;;;;5.67;4.00;;;23.40;89.30;;;;;;5049739;28;20053;-71
2022/08/24 06:45:20;;;;;;;6.07;3.57;;;23.40;89.30;;;;;;5049739;28;20106;-71
2022/08/24 06:47:46;;;;;;;6.75;3.83;;;23.50;89.90;;;;;;5032012;28;20164;-71
2022/08/24 06:50:12;;;;;;;8.83;4.50;;;23.50;89.40;;;;;;5029633;28;20452;-71
2022/08/24 06:52:39;;;;;;;11.05;4.10;;;23.60;89.50;;;;;;5030055;28;20032;-71
2022/08/24 06:55:05;;;;;;;8.38;5.60;;;23.60;89.80;;;;;;5040534;28;20114;-71
2022/08/24 06:57:31;;;;;;;9.75;3.83;;;23.80;90.00;;;;;;5049207;28;20503;-71
2022/08/24 06:59:57;;;;;;;9.47;4.00;;;23.90;89.60;;;;;;5048315;28;20116;-71
2022/08/24 07:02:23;;;;;;;8.53;4.20;;;24.00;88.30;;;;;;5046257;28;20052;-72
2022/08/24 07:04:49;;;;;;;;;;;24.00;87.80;;;;;;5049912;28;20028;-73
2022/08/24 07:07:16;;;;;;;8.75;4.10;;;23.90;88.80;;;;;;5049709;28;19916;-72
2022/08/24 07:09:41;;;;;;;;;;;23.90;88.90;;;;;;5048408;28;20033;-71
2022/08/24 07:12:07;;;;;;;6.07;3.85;;;24.00;89.30;;;;;;5049917;28;19913;-71
2022/08/24 07:14:33;;;;;;;6.53;4.30;;;24.10;89.50;;;;;;5049680;28;20424;-71
2022/08/24 07:16:58;;;;;;;6.30;4.27;;;24.30;88.90;;;;;;5042163;28;20100;-71
2022/08/24 07:19:24;;;;;;;7.20;4.20;;;24.40;88.90;;;;;;5029314;28;20057;-70
2022/08/24 07:21:50;;;;;;;10.73;4.70;;;24.50;87.90;;;;;;5029573;28;20060;-71
2022/08/24 07:24:16;;;;;;;7.15;4.10;;;24.50;87.80;;;;;;5030372;28;20072;-72
2022/08/24 07:26:41;;;;;;;12.82;4.65;;;24.40;87.70;;;;;;5047924;28;20500;-72
2022/08/24 07:29:14;;;;;;;9.00;4.13;;;24.50;88.60;;;;;;5052864;28;20079;-71
2022/08/24 07:31:41;;;;;;;6.70;4.82;;;24.70;87.20;;;;;;5050160;28;20048;-72
2022/08/24 07:34:08;;;;;;;7.32;3.78;;;24.80;87.20;;;;;;5032805;28;20033;-71
2022/08/24 07:36:35;;;;;;;9.77;4.40;;;24.90;87.50;;;;;;5032765;28;20038;-73
2022/08/24 07:39:01;;;;;;;7.75;4.03;;;25.00;87.30;;;;;;5032634;28;20037;-71
2022/08/24 07:41:27;;;;;;;7.68;4.30;;;25.10;86.40;;;;;;5043131;28;20037;-72
2022/08/24 07:43:55;;;;;;;6.87;3.70;;;25.20;86.50;;;;;;5052360;28;20503;-73
2022/08/24 07:46:21;;;;;;;9.52;4.20;;;25.30;86.70;;;;;;5052425;28;20029;-71
2022/08/24 07:48:47;;;;;;;9.40;4.65;;;25.50;85.50;;;;;;5034130;28;20036;-71
2022/08/24 07:51:16;;;;;;;8.23;4.65;;;25.50;84.60;;;;;;5032457;28;20049;-73
2022/08/24 07:53:43;;;;;;;10.48;4.80;;;25.60;85.80;;;;;;5032464;28;20496;-71
2022/08/24 07:56:09;;;;;;;13.45;4.38;;;25.80;83.50;;;;;;5037311;28;20080;-71
2022/08/24 07:58:35;;;;;;;8.27;4.32;;;25.90;82.80;;;;;;5051986;28;20507;-71
2022/08/24 08:01:03;;;;;;;8.57;4.70;;;25.90;83.30;;;;;;5050981;28;20052;-72
2022/08/24 08:03:32;;;;;;;10.35;4.32;;;26.10;83.20;;;;;;5038189;28;20048;-72
2022/08/24 08:06:00;;;;;;;14.73;4.90;;;26.30;82.40;;;;;;5032088;28;20490;-71
2022/08/24 08:08:26;;;;;;;12.68;4.53;;;26.30;82.00;;;;;;5032132;28;20033;-72
2022/08/24 08:10:52;;;;;;;8.55;4.13;;;26.30;81.30;;;;;;5033997;28;20091;-71
2022/08/24 08:13:18;;;;;;;13.83;4.23;;;26.40;81.90;;;;;;5051991;28;20033;-71
2022/08/24 08:15:44;;;;;;;12.63;4.77;;;26.70;80.80;;;;;;5052369;28;20098;-70
2022/08/24 08:18:10;;;;;;;15.15;4.18;;;27.00;80.30;;;;;;5050493;28;20330;-72
2022/08/24 08:20:38;;;;;;;15.93;4.50;;;27.20;77.90;;;;;;5041891;28;20579;-72
2022/08/24 08:25:51;;;;;;;12.65;4.50;;;27.60;77.70;;;;;;5031712;28;20072;-73
2022/08/24 08:28:17;;;;;;;14.77;4.70;;;27.80;78.10;;;;;;5051763;28;20222;-72
2022/08/24 08:30:44;;;;;;;8.40;3.83;;;27.90;75.60;;;;;;5050467;28;20473;-72
2022/08/24 08:33:10;;;;;;;8.75;4.05;;;28.00;76.30;;;;;;5045337;28;20042;-71
2022/08/24 08:35:36;;;;;;;11.80;4.25;;;28.10;76.30;;;;;;5030489;28;20355;-71
2022/08/24 08:38:03;;;;;;;15.18;4.05;;;28.10;75.10;;;;;;5031761;28;20045;-71
2022/08/24 08:40:44;;;;;;;12.27;3.95;;;28.10;75.50;;;;;;5031683;28;20432;-71
2022/08/24 08:43:38;;;;;;;6.90;3.60;;;28.20;74.30;;;;;;5031707;28;20046;-71
2022/08/24 08:46:23;;;;;;;10.95;4.15;;;28.30;74.20;;;;;;5031707;28;20025;-70
2022/08/24 08:49:11;;;;;;;10.90;4.03;;;28.50;72.80;;;;;;5035994;28;20048;-71
2022/08/24 08:52:09;;;;;;;12.05;4.38;;;28.80;73.20;;;;;;5043001;28;20511;-73
2022/08/24 08:55:10;;;;;;;10.98;3.88;;;29.10;71.50;;;;;;5051374;28;20032;-72
2022/08/24 08:58:03;;;;;;;10.20;3.78;;;29.30;70.60;;;;;;5028358;28;20585;-72
2022/08/24 09:01:02;;;;;;;8.80;3.90;;;29.50;70.70;;;;;;5031317;28;20434;-72
2022/08/24 09:03:59;;;;;;;8.05;3.53;;;29.70;69.40;;;;;;5044981;28;20079;-72
2022/08/24 09:06:43;;;;;;;14.70;3.97;;;29.60;69.20;;;;;;5051299;28;20108;-73
2022/08/24 09:10:01;;;;;;;12.38;4.15;;;29.90;69.60;;;;;;5048222;28;20033;-73
2022/08/24 09:13:02;;;;;;;9.10;3.65;;;30.30;69.30;;;;;;5046586;28;20075;-73
2022/08/24 09:16:02;;;;;;;8.23;4.20;;;30.40;67.80;;;;;;5031052;28;20072;-74
2022/08/24 09:19:09;;;;;;;10.50;3.60;;;30.30;68.20;;;;;;5044536;28;20114;-74
2022/08/24 09:21:51;;;;;;;8.23;3.88;;;30.40;66.60;;;;;;5050613;28;20100;-72
2022/08/24 09:24:24;;;;;;;12.88;3.85;;;30.30;66.70;;;;;;5034369;28;20095;-71
2022/08/24 09:27:07;;;;;;;11.18;3.40;;;30.40;66.50;;;;;;5032238;28;20432;-73
2022/08/24 09:29:36;;;;;;;8.77;3.40;;;30.60;65.30;;;;;;5029112;28;20037;-72
2022/08/24 09:32:26;;;;;;;13.90;3.78;;;30.70;65.10;;;;;;5036463;28;20048;-72
2022/08/24 09:35:03;;;;;;;13.68;3.60;;;30.90;64.90;;;;;;5049272;28;20536;-72
2022/08/24 09:37:56;;;;;;;9.02;3.53;;;30.90;65.20;;;;;;5050888;28;20376;-71
2022/08/24 09:40:55;;;;;;;10.18;3.70;;;31.00;65.00;;;;;;5050474;28;20125;-71
2022/08/24 09:43:57;;;;;;;7.10;3.28;;;31.00;64.50;;;;;;5047619;28;20053;-75
2022/08/24 09:47:02;;;;;;;10.38;3.10;;;31.00;64.00;;;;;;5043034;28;20042;-72
2022/08/24 09:50:01;;;;;;;9.35;3.35;;;31.00;64.40;;;;;;5029831;28;20032;-71
2022/08/24 09:52:50;;;;;;;9.77;3.63;;;31.10;64.00;;;;;;5048196;28;20550;-73
2022/08/24 09:55:44;;;;;;;9.63;3.00;;;31.10;63.70;;;;;;5050584;28;20107;-74
2022/08/24 09:58:56;;;;;;;8.20;3.00;;;31.10;62.60;;;;;;5046889;28;20371;-72
2022/08/24 10:01:43;;;;;;;12.57;4.85;;;31.00;63.00;;;;;;5033449;28;20036;-73
2022/08/24 10:04:23;;;;;;;8.88;3.60;;;31.00;62.30;;;;;;5049936;28;20021;-73
2022/08/24 10:06:58;;;;;;;6.43;2.67;;;31.10;61.90;;;;;;5047064;28;20060;-73
2022/08/24 10:09:53;;;;;;;6.30;2.90;;;31.10;62.30;;;;;;5031059;28;20025;-72
2022/08/24 10:12:48;;;;;;;7.40;2.85;;;31.00;61.70;;;;;;5030498;28;20033;-72
2022/08/24 10:15:27;;;;;;;9.75;3.13;;;31.00;61.60;;;;;;5029228;28;20033;-73
2022/08/24 10:18:16;;;;;;;12.73;4.05;;;31.10;61.70;;;;;;5049830;28;20037;-73
2022/08/24 10:21:11;;;;;;;9.38;2.88;;;31.30;62.10;;;;;;5049947;28;20024;-73
2022/08/24 10:23:45;;;;;;;8.85;2.75;;;31.70;61.80;;;;;;5049971;28;20412;-71
2022/08/24 10:26:44;;;;;;;8.25;2.95;;;32.00;61.00;;;;;;5044501;28;20061;-73
2022/08/24 10:29:35;;;;;;;7.72;2.83;;;32.30;60.60;;;;;;5029736;28;20032;-73
2022/08/24 10:32:15;;;;;;;8.02;2.70;;;32.50;60.20;;;;;;5043137;28;20033;-74
2022/08/24 10:34:53;;;;;;;9.90;3.30;;;32.80;60.20;;;;;;5048500;28;20048;-73
2022/08/24 10:39:39;;;;;;;8.07;2.80;;;33.00;59.60;;;;;;5046079;28;20041;-73
2022/08/24 10:41:00;;;;;;;7.68;3.30;;;32.90;60.60;;;;;;5031250;28;20033;-73
2022/08/24 10:43:35;;;;;;;5.60;2.83;;;33.30;59.90;;;;;;5029684;28;20061;-74
2022/08/24 10:46:19;;;;;;;9.02;3.10;;;33.40;58.80;;;;;;5040567;28;20266;-72
2022/08/24 10:49:11;;;;;;;10.20;2.95;;;33.30;59.10;;;;;;5049734;28;20405;-73
2022/08/24 10:51:51;;;;;;;9.05;2.83;;;33.10;59.00;;;;;;5048160;28;20473;-73
2022/08/24 10:54:18;;;;;;;8.10;3.35;;;33.10;59.40;;;;;;5049517;28;20029;-72
2022/08/24 10:57:07;;;;;;;8.88;3.33;;;33.10;59.60;;;;;;5033573;28;20515;-72
2022/08/24 11:00:01;;;;;;;8.23;3.00;;;33.40;59.60;;;;;;5030596;28;20065;-72
2022/08/24 11:02:28;;;;;;;8.40;3.25;;;33.60;59.50;;;;;;5033642;28;20495;-72
2022/08/24 11:04:57;;;;;;;10.15;3.10;;;33.90;59.10;;;;;;5033485;28;20013;-71
2022/08/24 11:07:23;;;;;;;9.57;3.85;;;33.90;58.70;;;;;;5048768;28;20477;-73
2022/08/24 11:09:52;;;;;;;8.98;2.78;;;33.80;58.00;;;;;;5052025;28;20111;-71
2022/08/24 11:12:23;;;;;;;14.05;4.47;;;33.60;58.20;;;;;;5053554;28;20041;-71
2022/08/24 11:14:49;;;;;;;9.07;3.55;;;33.40;59.10;;;;;;5050157;28;20021;-72
2022/08/24 11:17:16;;;;;;;;;;;33.40;58.90;;;;;;5053133;28;20336;-72
2022/08/24 11:19:42;;;;;;;11.98;4.07;;;33.60;58.80;;;;;;5050768;28;19990;-72
2022/08/24 11:22:29;;;;;;;12.30;4.03;;;33.90;58.90;;;;;;5051624;28;20040;-72
2022/08/24 11:24:58;;;;;;;10.82;3.20;;;34.30;58.00;;;;;;5050912;28;20565;-72
2022/08/24 11:27:35;;;;;;;8.55;3.17;;;34.40;57.80;;;;;;5046862;28;20370;-72
2022/08/24 11:30:10;;;;;;;;;;;34.60;57.00;;;;;;5036392;28;20029;-73
2022/08/24 11:32:44;;;;;;;11.77;3.75;;;34.70;57.10;;;;;;5052632;28;20458;-72
2022/08/24 11:35:36;;;;;;;10.32;3.53;;;34.30;57.00;;;;;;5052792;28;20051;-71
2022/08/24 11:38:26;;;;;;;6.18;2.72;;;34.30;57.00;;;;;;5037059;28;20033;-72
2022/08/24 11:40:55;;;;;;;10.38;3.40;;;34.20;57.90;;;;;;5052258;28;20021;-71
2022/08/24 11:43:28;;;;;;;7.63;2.88;;;34.10;57.70;;;;;;5052317;28;20045;-73
2022/08/24 11:46:17;;;;;;;9.68;2.88;;;34.00;57.40;;;;;;5036663;28;20029;-70
2022/08/24 11:49:21;;;;;;;9.57;2.95;;;33.90;57.30;;;;;;5035434;28;20029;-71
2022/08/24 11:51:59;;;;;;;10.93;4.22;;;33.60;57.60;;;;;;5049976;28;20053;-71
2022/08/24 11:54:44;;;;;;;8.23;3.53;;;33.20;57.80;;;;;;5052159;28;20028;-72
2022/08/24 11:57:32;;;;;;;9.30;2.75;;;33.20;58.40;;;;;;5034332;28;20045;-72
2022/08/24 12:00:12;;;;;;;;;;;33.20;58.40;;;;;;5037912;28;20094;-71
2022/08/24 12:03:04;;;;;;;4.90;2.60;;;33.00;58.50;;;;;;5050845;28;20184;-71
2022/08/24 12:05:38;;;;;;;8.23;2.75;;;32.80;58.80;;;;;;5050870;28;20094;-72
2022/08/24 12:08:04;;;;;;;8.07;2.40;;;32.80;59.00;;;;;;5051751;28;20496;-72
2022/08/24 12:11:05;;;;;;;11.80;2.97;;;32.60;58.70;;;;;;5029997;28;20038;-72
2022/08/24 12:14:01;;;;;;;11.50;2.70;;;32.50;59.00;;;;;;5049133;28;20048;-71
2022/08/24 12:16:38;;;;;;;6.50;2.58;;;32.60;59.40;;;;;;5032610;28;20057;-72
2022/08/24 12:19:19;;;;;;;6.90;2.60;;;32.70;58.90;;;;;;5031735;28;20026;-71
2022/08/24 12:21:49;;;;;;;9.02;2.75;;;32.60;59.10;;;;;;5034780;28;20111;-72
2022/08/24 12:24:40;;;;;;;9.98;3.00;;;32.50;59.20;;;;;;5050114;28;20096;-72
2022/08/24 12:27:19;;;;;;;10.73;3.90;;;32.50;59.40;;;;;;5047551;28;20041;-71
2022/08/24 12:30:00;;;;;;;14.02;4.07;;;32.40;59.20;;;;;;5051367;28;20025;-72
2022/08/24 12:32:36;;;;;;;9.27;2.92;;;32.30;59.50;;;;;;5030278;28;20033;-73
2022/08/24 12:35:17;;;;;;;9.77;3.13;;;32.30;60.00;;;;;;5035575;28;20029;-73
2022/08/24 12:37:48;;;;;;;5.78;2.58;;;32.10;59.60;;;;;;5051744;28;20045;-73
2022/08/24 12:40:40;;;;;;;9.93;3.05;;;31.90;60.20;;;;;;5051358;28;20477;-72
2022/08/24 12:43:31;;;;;;;8.20;2.97;;;31.80;60.20;;;;;;5051255;28;20051;-73
2022/08/24 12:46:00;;;;;;;10.98;3.20;;;31.80;60.60;;;;;;5037414;28;20075;-72
2022/08/24 12:48:38;;;;;;;7.07;2.83;;;31.90;59.80;;;;;;5051283;28;20021;-72
2022/08/24 12:51:45;;;;;;;6.30;2.80;;;31.60;59.60;;;;;;5051262;28;20134;-73
2022/08/24 12:54:25;;;;;;;7.93;2.75;;;31.50;60.40;;;;;;5050216;28;20028;-72
2022/08/24 12:56:53;;;;;;;9.38;3.20;;;31.50;60.40;;;;;;5051256;28;20082;-72
2022/08/24 12:59:43;;;;;;;5.75;2.88;;;31.50;60.60;;;;;;5050936;28;20543;-72
2022/08/24 13:02:18;;;;;;;14.27;3.17;;;31.50;61.00;;;;;;5035221;28;20029;-72
2022/08/24 13:04:49;;;;;;;9.20;2.67;;;31.60;60.30;;;;;;5030888;28;20033;-71
2022/08/24 13:07:18;;;;;;;10.32;3.00;;;31.60;59.90;;;;;;5029560;28;20120;-70
2022/08/24 13:10:04;;;;;;;10.50;3.03;;;31.60;60.10;;;;;;5037095;28;20086;-72
2022/08/24 13:12:29;;;;;;;7.18;2.58;;;31.60;60.10;;;;;;5051207;28;20468;-72
2022/08/24 13:15:27;;;;;;;9.45;3.03;;;31.60;60.70;;;;;;5050767;28;20025;-71
2022/08/24 13:17:57;;;;;;;7.22;2.42;;;31.50;60.70;;;;;;5046425;28;20056;-70
2022/08/24 13:20:46;;;;;;;9.15;3.20;;;31.60;61.00;;;;;;5034087;28;20112;-71
2022/08/24 13:23:11;;;;;;;10.88;3.10;;;31.60;61.30;;;;;;5029366;28;20033;-73